createdAt,value
2018-11-01T00:01:16.152Z,68.20
2018-11-01T00:03:45.082Z,68.08
2018-11-01T00:06:13.837Z,68.58
2018-11-01T00:08:42.512Z,68.60
2018-11-01T00:11:11.142Z,68.67
2018-11-01T00:13:39.931Z,68.67
2018-11-01T00:16:08.595Z,69.01
2018-11-01T00:18:37.262Z,68.43
2018-11-01T00:21:07.311Z,68.52
2018-11-01T00:23:36.485Z,68.97
2018-11-01T00:26:05.316Z,68.73
2018-11-01T00:28:33.954Z,68.31
2018-11-01T00:31:03.006Z,68.79
2018-11-01T00:33:32.474Z,69.07
2018-11-01T00:36:01.986Z,69.02
2018-11-01T00:38:30.937Z,69.57
2018-11-01T00:40:59.640Z,69.08
2018-11-01T00:43:28.412Z,69.04
2018-11-01T00:45:57.309Z,69.23
2018-11-01T00:48:25.919Z,69.28
2018-11-01T00:50:54.672Z,69.34
2018-11-01T00:53:23.300Z,69.55
2018-11-01T00:55:52.019Z,69.60
2018-11-01T00:58:20.766Z,69.82
2018-11-01T01:00:49.484Z,69.36
2018-11-01T01:03:18.099Z,70.01
2018-11-01T01:05:46.877Z,69.41
2018-11-01T01:08:15.484Z,69.93
2018-11-01T01:10:44.065Z,69.53
2018-11-01T01:13:12.716Z,70.24
2018-11-01T01:15:41.463Z,69.92
2018-11-01T01:18:10.015Z,70.06
2018-11-01T01:20:38.642Z,70.32
2018-11-01T01:23:07.496Z,69.64
2018-11-01T01:25:36.199Z,70.20
2018-11-01T01:28:04.908Z,69.96
2018-11-01T01:30:33.512Z,69.82
2018-11-01T01:33:02.911Z,69.99
2018-11-01T01:35:31.478Z,69.85
2018-11-01T01:38:00.257Z,69.69
2018-11-01T01:40:28.896Z,69.74
2018-11-01T01:42:57.692Z,69.66
2018-11-01T01:45:26.462Z,70.06
2018-11-01T01:47:55.160Z,69.79
2018-11-01T01:50:23.891Z,69.96
2018-11-01T01:52:52.839Z,69.73
2018-11-01T01:55:22.202Z,69.39
2018-11-01T01:57:51.171Z,69.77
2018-11-01T02:00:21.218Z,70.12
2018-11-01T02:02:52.026Z,70.25
2018-11-01T02:05:20.685Z,69.89
2018-11-01T02:07:49.566Z,70.00
2018-11-01T02:10:18.917Z,69.83
2018-11-01T02:12:47.613Z,70.70
2018-11-01T02:15:19.083Z,70.43
2018-11-01T02:17:47.993Z,70.60
2018-11-01T02:20:18.090Z,70.53
2018-11-01T02:22:47.180Z,70.44
2018-11-01T02:25:16.080Z,70.69
2018-11-01T02:27:50.195Z,69.98
2018-11-01T02:30:19.501Z,70.42
2018-11-01T02:32:48.410Z,70.19
2018-11-01T02:35:18.266Z,70.14
2018-11-01T02:37:47.067Z,70.09
2018-11-01T02:40:16.332Z,69.70
2018-11-01T02:42:45.176Z,69.64
2018-11-01T02:45:14.709Z,69.37
2018-11-01T02:47:43.471Z,69.75
2018-11-01T02:50:13.250Z,69.79
2018-11-01T02:52:42.432Z,69.77
2018-11-01T02:55:11.538Z,70.04
2018-11-01T02:57:40.336Z,70.14
2018-11-01T03:00:10.334Z,69.84
2018-11-01T03:02:39.069Z,70.46
2018-11-01T03:05:08.510Z,70.14
2018-11-01T03:07:37.364Z,70.21
2018-11-01T03:10:07.432Z,70.66
2018-11-01T03:12:36.305Z,71.20
2018-11-01T03:15:05.627Z,70.82
2018-11-01T03:17:34.298Z,70.87
2018-11-01T03:20:03.251Z,70.71
2018-11-01T03:22:31.841Z,71.00
2018-11-01T03:25:00.735Z,70.95
2018-11-01T03:27:29.514Z,71.00
2018-11-01T03:29:58.439Z,71.28
2018-11-01T03:32:27.145Z,71.13
2018-11-01T03:34:55.988Z,71.20
2018-11-01T03:37:24.575Z,71.06
2018-11-01T03:39:53.459Z,71.54
2018-11-01T03:42:22.228Z,71.47
2018-11-01T03:44:50.823Z,70.40
2018-11-01T03:47:19.485Z,71.37
2018-11-01T03:49:48.121Z,71.62
2018-11-01T03:52:16.740Z,71.82
2018-11-01T03:54:45.397Z,71.77
2018-11-01T03:57:14.186Z,71.68
2018-11-01T03:59:42.840Z,71.29
2018-11-01T04:02:11.512Z,71.66
2018-11-01T04:04:40.300Z,71.65
2018-11-01T04:07:08.993Z,71.31
2018-11-01T04:09:37.826Z,71.74
2018-11-01T04:12:06.495Z,71.60
2018-11-01T04:14:35.067Z,71.68
2018-11-01T04:17:03.932Z,71.71
2018-11-01T04:19:32.492Z,71.72
2018-11-01T04:22:03.639Z,71.86
2018-11-01T04:24:32.781Z,72.16
2018-11-01T04:27:01.735Z,71.71
2018-11-01T04:29:30.444Z,71.74
2018-11-01T04:31:59.116Z,72.01
2018-11-01T04:34:27.707Z,72.11
2018-11-01T04:36:56.637Z,72.18
2018-11-01T04:39:25.226Z,71.61
2018-11-01T04:41:54.173Z,71.68
2018-11-01T04:44:22.772Z,71.79
2018-11-01T04:46:51.416Z,72.00
2018-11-01T04:49:20.060Z,71.88
2018-11-01T04:51:48.771Z,71.34
2018-11-01T04:54:17.354Z,72.15
2018-11-01T04:56:46.110Z,72.26
2018-11-01T04:59:14.804Z,71.77
2018-11-01T05:01:43.487Z,72.16
2018-11-01T05:04:12.097Z,71.91
2018-11-01T05:06:40.947Z,71.40
2018-11-01T05:09:09.585Z,72.00
2018-11-01T05:11:38.357Z,72.04
2018-11-01T05:14:06.993Z,72.70
2018-11-01T05:16:35.643Z,71.72
2018-11-01T05:19:04.207Z,71.67
2018-11-01T05:21:32.824Z,71.72
2018-11-01T05:24:02.878Z,71.67
2018-11-01T05:26:32.658Z,70.88
2018-11-01T05:29:01.726Z,71.22
2018-11-01T05:31:30.394Z,71.14
2018-11-01T05:33:59.634Z,71.13
2018-11-01T05:36:28.235Z,71.02
2018-11-01T05:38:56.922Z,71.43
2018-11-01T05:41:25.651Z,71.11
2018-11-01T05:43:54.367Z,71.10
2018-11-01T05:46:23.129Z,71.14
2018-11-01T05:48:51.748Z,70.62
2018-11-01T05:51:20.503Z,70.47
2018-11-01T05:53:49.290Z,70.98
2018-11-01T05:56:17.994Z,70.96
2018-11-01T05:58:46.648Z,71.10
2018-11-01T06:01:19.331Z,70.95
2018-11-01T06:03:48.199Z,70.89
2018-11-01T06:06:16.840Z,71.40
2018-11-01T06:08:46.212Z,70.01
2018-11-01T06:11:14.781Z,70.36
2018-11-01T06:13:43.494Z,70.71
2018-11-01T06:16:12.333Z,70.35
2018-11-01T06:18:40.996Z,70.74
2018-11-01T06:21:09.791Z,71.60
2018-11-01T06:23:38.764Z,71.48
2018-11-01T06:26:07.569Z,72.00
2018-11-01T06:28:36.251Z,71.56
2018-11-01T06:31:04.958Z,72.04
2018-11-01T06:33:33.613Z,71.50
2018-11-01T06:36:06.124Z,71.37
2018-11-01T06:38:34.777Z,71.77
2018-11-01T06:41:04.502Z,71.47
2018-11-01T06:43:33.032Z,71.63
2018-11-01T06:46:01.709Z,71.32
2018-11-01T06:48:30.342Z,71.41
2018-11-01T06:50:58.998Z,71.54
2018-11-01T06:53:27.816Z,71.92
2018-11-01T06:55:56.391Z,72.14
2018-11-01T06:58:25.261Z,72.18
2018-11-01T07:00:54.551Z,71.91
2018-11-01T07:03:23.180Z,71.77
2018-11-01T07:05:52.990Z,71.04
2018-11-01T07:08:21.775Z,71.76
2018-11-01T07:10:50.456Z,71.19
2018-11-01T07:13:19.196Z,71.06
2018-11-01T07:15:47.826Z,71.32
2018-11-01T07:18:16.367Z,71.41
2018-11-01T07:20:44.989Z,70.92
2018-11-01T07:23:13.624Z,71.72
2018-11-01T07:25:42.500Z,71.26
2018-11-01T07:28:11.628Z,71.29
2018-11-01T07:30:40.265Z,71.18
2018-11-01T07:33:09.571Z,71.39
2018-11-01T07:35:38.194Z,70.66
2018-11-01T07:38:07.194Z,71.36
2018-11-01T07:40:35.909Z,71.30
2018-11-01T07:43:05.638Z,70.96
2018-11-01T07:45:34.303Z,71.01
2018-11-01T07:48:03.728Z,70.73
2018-11-01T07:50:32.444Z,71.34
2018-11-01T07:53:03.398Z,70.75
2018-11-01T07:55:32.063Z,71.08
2018-11-01T07:58:00.800Z,71.34
2018-11-01T08:00:29.452Z,70.69
2018-11-01T08:02:58.193Z,71.05
2018-11-01T08:05:26.905Z,70.96
2018-11-01T08:07:55.656Z,70.17
2018-11-01T08:10:24.343Z,70.58
2018-11-01T08:12:53.164Z,70.30
2018-11-01T08:15:22.437Z,69.87
2018-11-01T08:17:50.964Z,70.37
2018-11-01T08:20:19.838Z,69.85
2018-11-01T08:22:48.221Z,69.73
2018-11-01T08:25:16.931Z,69.34
2018-11-01T08:27:45.459Z,69.76
2018-11-01T08:30:16.824Z,69.19
2018-11-01T08:32:46.245Z,68.96
2018-11-01T08:35:14.936Z,68.75
2018-11-01T08:37:45.399Z,68.45
2018-11-01T08:40:14.543Z,68.95
2018-11-01T08:42:43.517Z,67.80
2018-11-01T08:45:13.267Z,68.59
2018-11-01T08:47:42.295Z,68.67
2018-11-01T08:50:12.417Z,68.59
2018-11-01T08:52:42.243Z,67.88
2018-11-01T08:55:11.292Z,68.04
2018-11-01T08:57:40.647Z,68.80
2018-11-01T09:00:12.792Z,68.54
2018-11-01T09:02:42.606Z,67.89
2018-11-01T09:05:12.318Z,66.69
2018-11-01T09:07:41.352Z,66.96
2018-11-01T09:10:12.509Z,67.73
2018-11-01T09:12:41.495Z,67.84
2018-11-01T09:15:12.012Z,67.91
2018-11-01T09:17:41.774Z,66.71
2018-11-01T09:20:11.144Z,67.05
2018-11-01T09:22:40.463Z,67.27
2018-11-01T09:25:09.127Z,67.33
2018-11-01T09:27:37.781Z,67.16
2018-11-01T09:30:10.915Z,68.03
2018-11-01T09:32:39.919Z,67.71
2018-11-01T09:35:10.634Z,67.67
2018-11-01T09:37:40.424Z,66.63
2018-11-01T09:40:10.623Z,66.95
2018-11-01T09:42:40.344Z,66.71
2018-11-01T09:45:09.072Z,66.98
2018-11-01T09:47:38.102Z,66.91
2018-11-01T09:50:08.133Z,66.90
2018-11-01T09:52:36.945Z,66.46
2018-11-01T09:55:05.913Z,66.57
2018-11-01T09:57:35.283Z,66.78
2018-11-01T10:00:04.463Z,66.28
2018-11-01T10:02:33.232Z,65.82
2018-11-01T10:05:02.316Z,66.88
2018-11-01T10:07:31.399Z,66.36
2018-11-01T10:10:00.694Z,66.27
2018-11-01T10:12:29.748Z,66.65
2018-11-01T10:14:58.981Z,66.31
2018-11-01T10:17:29.165Z,66.52
2018-11-01T10:19:57.413Z,66.02
2018-11-01T10:22:26.247Z,66.17
2018-11-01T10:24:54.795Z,65.97
2018-11-01T10:27:23.355Z,65.99
2018-11-01T10:29:52.117Z,65.83
2018-11-01T10:32:20.751Z,65.91
2018-11-01T10:34:49.468Z,65.48
2018-11-01T10:37:18.219Z,65.67
2018-11-01T10:39:46.727Z,65.78
2018-11-01T10:42:15.275Z,65.78
2018-11-01T10:44:43.927Z,65.74
2018-11-01T10:47:12.889Z,66.44
2018-11-01T10:49:41.575Z,65.80
2018-11-01T10:52:10.290Z,66.02
2018-11-01T10:54:38.937Z,66.29
2018-11-01T10:57:08.252Z,66.64
2018-11-01T10:59:36.925Z,66.64
2018-11-01T11:02:11.582Z,66.77
2018-11-01T11:04:40.833Z,66.78
2018-11-01T11:07:09.522Z,66.92
2018-11-01T11:09:38.220Z,66.80
2018-11-01T11:12:07.281Z,66.62
2018-11-01T11:14:36.037Z,66.88
2018-11-01T11:17:04.656Z,67.20
2018-11-01T11:19:33.426Z,66.19
2018-11-01T11:22:02.421Z,66.46
2018-11-01T11:24:31.157Z,66.41
2018-11-01T11:27:00.662Z,66.74
2018-11-01T11:29:29.702Z,66.75
2018-11-01T11:31:58.892Z,66.66
2018-11-01T11:34:27.881Z,67.19
2018-11-01T11:36:56.864Z,66.95
2018-11-01T11:39:25.728Z,67.24
2018-11-01T11:41:54.780Z,67.21
2018-11-01T11:44:24.310Z,66.97
2018-11-01T11:46:53.121Z,66.74
2018-11-01T11:49:21.797Z,67.02
2018-11-01T11:51:50.531Z,66.72
2018-11-01T11:54:19.489Z,66.91
2018-11-01T11:56:48.332Z,67.36
2018-11-01T11:59:17.131Z,67.30
2018-11-01T12:01:45.839Z,67.22
2018-11-01T12:04:15.088Z,67.02
2018-11-01T12:06:43.839Z,67.51
2018-11-01T12:09:12.767Z,67.27
2018-11-01T12:11:41.608Z,67.36
2018-11-01T12:14:10.405Z,67.60
2018-11-01T12:16:39.566Z,67.57
2018-11-01T12:19:08.197Z,67.87
2018-11-01T12:21:36.941Z,68.52
2018-11-01T12:24:06.053Z,67.72
2018-11-01T12:26:34.959Z,68.09
2018-11-01T12:29:04.131Z,67.91
2018-11-01T12:31:32.751Z,67.27
2018-11-01T12:34:01.983Z,67.34
2018-11-01T12:36:30.612Z,67.11
2018-11-01T12:38:59.218Z,66.84
2018-11-01T12:41:27.960Z,67.62
2018-11-01T12:43:56.550Z,66.83
2018-11-01T12:46:25.205Z,66.63
2018-11-01T12:48:53.805Z,66.67
2018-11-01T12:51:23.434Z,66.68
2018-11-01T12:53:52.052Z,66.59
2018-11-01T12:56:20.708Z,66.11
2018-11-01T12:58:49.251Z,66.91
2018-11-01T13:01:18.200Z,66.30
2018-11-01T13:03:46.799Z,66.88
2018-11-01T13:06:15.452Z,67.33
2018-11-01T13:08:44.043Z,66.61
2018-11-01T13:11:12.641Z,66.56
2018-11-01T13:13:41.372Z,66.82
2018-11-01T13:16:09.913Z,66.96
2018-11-01T13:18:38.474Z,67.29
2018-11-01T13:21:07.020Z,67.22
2018-11-01T13:23:35.590Z,67.33
2018-11-01T13:26:04.161Z,67.61
2018-11-01T13:28:32.775Z,68.23
2018-11-01T13:31:02.718Z,67.86
2018-11-01T13:33:31.343Z,68.14
2018-11-01T13:35:59.903Z,68.12
2018-11-01T13:38:28.547Z,68.36
2018-11-01T13:40:57.693Z,68.24
2018-11-01T13:43:25.910Z,69.00
2018-11-01T13:45:54.486Z,68.16
2018-11-01T13:48:23.252Z,68.67
2018-11-01T13:50:51.738Z,68.57
2018-11-01T13:53:20.374Z,67.90
2018-11-01T13:55:48.952Z,68.38
2018-11-01T13:58:17.537Z,68.18
2018-11-01T14:00:46.210Z,69.38
2018-11-01T14:03:14.715Z,68.73
2018-11-01T14:05:43.587Z,68.64
2018-11-01T14:08:12.047Z,68.64
2018-11-01T14:10:40.742Z,69.16
2018-11-01T14:13:09.314Z,68.55
2018-11-01T14:15:38.003Z,68.77
2018-11-01T14:18:06.630Z,69.27
2018-11-01T14:20:36.180Z,68.64
2018-11-01T14:23:05.919Z,69.06
2018-11-01T14:25:34.806Z,69.03
2018-11-01T14:28:04.472Z,69.56
2018-11-01T14:30:33.174Z,69.44
2018-11-01T14:33:02.713Z,69.67
2018-11-01T14:35:31.397Z,70.27
2018-11-01T14:38:00.457Z,70.40
2018-11-01T14:40:29.082Z,70.55
2018-11-01T14:42:58.097Z,70.64
2018-11-01T14:45:26.862Z,71.10
2018-11-01T14:47:55.815Z,70.83
2018-11-01T14:50:24.636Z,72.01
2018-11-01T14:52:53.596Z,71.30
2018-11-01T14:55:22.872Z,72.03
2018-11-01T14:57:58.262Z,72.32
2018-11-01T15:00:25.563Z,72.73
2018-11-01T15:02:54.302Z,72.65
2018-11-01T15:05:23.036Z,73.16
2018-11-01T15:07:51.583Z,73.09
2018-11-01T15:10:20.253Z,72.88
2018-11-01T15:12:48.912Z,72.82
2018-11-01T15:15:17.605Z,73.29
2018-11-01T15:17:46.424Z,73.22
2018-11-01T15:20:15.139Z,73.53
2018-11-01T15:22:43.761Z,73.27
2018-11-01T15:25:12.477Z,73.55
2018-11-01T15:27:41.158Z,73.63
2018-11-01T15:30:13.881Z,73.29
2018-11-01T15:32:42.539Z,73.36
2018-11-01T15:35:11.323Z,73.24
2018-11-01T15:37:40.224Z,73.64
2018-11-01T15:40:10.633Z,72.74
2018-11-01T15:42:39.370Z,73.02
2018-11-01T15:45:09.063Z,73.15
2018-11-01T15:47:38.088Z,72.61
2018-11-01T15:50:07.632Z,72.20
2018-11-01T15:52:36.282Z,72.07
2018-11-01T15:55:05.764Z,71.64
2018-11-01T15:57:34.404Z,71.74
2018-11-01T16:00:03.828Z,71.40
2018-11-01T16:02:32.541Z,71.39
2018-11-01T16:05:01.682Z,71.55
2018-11-01T16:07:30.253Z,71.50
2018-11-01T16:09:59.132Z,71.59
2018-11-01T16:12:27.755Z,71.82
2018-11-01T16:14:56.453Z,72.37
2018-11-01T16:17:25.013Z,72.12
2018-11-01T16:19:53.830Z,72.60
2018-11-01T16:22:22.313Z,72.73
2018-11-01T16:24:50.953Z,73.13
2018-11-01T16:27:19.699Z,72.69
2018-11-01T16:29:48.288Z,72.45
2018-11-01T16:32:16.817Z,73.10
2018-11-01T16:34:45.449Z,73.05
2018-11-01T16:37:14.217Z,74.07
2018-11-01T16:39:43.034Z,73.62
2018-11-01T16:42:11.767Z,74.07
2018-11-01T16:44:40.551Z,74.14
2018-11-01T16:47:09.294Z,74.41
2018-11-01T16:52:25.575Z,73.96
2018-11-01T16:54:54.230Z,74.39
2018-11-01T16:57:22.861Z,74.32
2018-11-01T16:59:51.463Z,74.28
2018-11-01T17:02:20.082Z,74.55
2018-11-01T17:04:48.706Z,74.21
2018-11-01T17:07:17.281Z,74.55
2018-11-01T17:09:46.025Z,74.47
2018-11-01T17:12:14.731Z,74.26
2018-11-01T17:14:43.320Z,73.83
2018-11-01T17:17:11.902Z,73.93
2018-11-01T17:19:40.415Z,73.59
2018-11-01T17:22:09.059Z,73.56
2018-11-01T17:24:38.090Z,73.19
2018-11-01T17:27:07.066Z,73.07
2018-11-01T17:29:35.986Z,72.73
2018-11-01T17:32:04.870Z,72.12
2018-11-01T17:34:33.685Z,72.03
2018-11-01T17:37:02.319Z,71.81
2018-11-01T17:39:31.121Z,72.09
2018-11-01T17:41:59.877Z,71.88
2018-11-01T17:44:28.767Z,72.24
2018-11-01T17:46:57.533Z,72.13
2018-11-01T17:49:26.104Z,71.97
2018-11-01T17:51:55.546Z,71.86
2018-11-01T17:54:24.175Z,72.19
2018-11-01T17:56:52.892Z,71.92
2018-11-01T17:59:21.554Z,72.14
2018-11-01T18:01:50.525Z,72.26
2018-11-01T18:04:19.073Z,71.59
2018-11-01T18:06:47.713Z,72.62
2018-11-01T18:09:16.676Z,72.42
2018-11-01T18:11:45.629Z,72.41
2018-11-01T18:14:14.400Z,72.30
2018-11-01T18:16:42.972Z,72.22
2018-11-01T18:19:11.720Z,71.79
2018-11-01T18:21:40.368Z,71.51
2018-11-01T18:24:09.140Z,70.92
2018-11-01T18:26:37.782Z,70.75
2018-11-01T18:29:06.816Z,70.45
2018-11-01T18:31:35.558Z,70.32
2018-11-01T18:34:04.805Z,70.03
2018-11-01T18:36:33.427Z,70.17
2018-11-01T18:39:03.807Z,70.27
2018-11-01T18:41:32.481Z,70.16
2018-11-01T18:44:02.296Z,70.45
2018-11-01T18:46:30.928Z,70.83
2018-11-01T18:48:59.776Z,71.00
2018-11-01T18:51:28.616Z,71.00
2018-11-01T18:53:57.466Z,71.42
2018-11-01T18:56:26.199Z,71.33
2018-11-01T18:58:54.914Z,71.49
2018-11-01T19:01:23.792Z,72.02
2018-11-01T19:03:52.784Z,72.57
2018-11-01T19:06:21.406Z,72.43
2018-11-01T19:08:50.050Z,72.83
2018-11-01T19:11:18.701Z,72.41
2018-11-01T19:13:47.735Z,71.99
2018-11-01T19:16:16.452Z,72.12
2018-11-01T19:18:45.291Z,71.80
2018-11-01T19:21:14.084Z,71.75
2018-11-01T19:23:42.682Z,71.96
2018-11-01T19:26:11.312Z,72.31
2018-11-01T19:28:39.938Z,72.16
2018-11-01T19:31:08.597Z,72.32
2018-11-01T19:33:37.240Z,72.40
2018-11-01T19:36:05.925Z,71.98
2018-11-01T19:38:34.537Z,72.43
2018-11-01T19:41:03.609Z,72.48
2018-11-01T19:43:33.362Z,72.70
2018-11-01T19:46:02.266Z,72.51
2018-11-01T19:48:31.246Z,72.66
2018-11-01T19:50:59.913Z,72.90
2018-11-01T19:53:28.613Z,73.31
2018-11-01T19:55:57.435Z,73.14
2018-11-01T19:58:26.211Z,73.72
2018-11-01T20:00:54.752Z,73.60
2018-11-01T20:03:23.408Z,73.51
2018-11-01T20:05:52.136Z,73.46
2018-11-01T20:08:20.868Z,73.83
2018-11-01T20:10:49.449Z,73.56
2018-11-01T20:13:17.981Z,73.96
2018-11-01T20:15:46.728Z,73.91
2018-11-01T20:18:15.285Z,74.13
2018-11-01T20:20:43.917Z,73.96
2018-11-01T20:23:13.683Z,73.80
2018-11-01T20:25:42.750Z,73.60
2018-11-01T20:28:12.903Z,73.87
2018-11-01T20:30:43.360Z,74.44
2018-11-01T20:33:13.141Z,74.34
2018-11-01T20:35:41.654Z,74.32
2018-11-01T20:38:10.401Z,74.32
2018-11-01T20:40:39.044Z,74.50
2018-11-01T20:43:07.729Z,74.47
2018-11-01T20:45:36.431Z,74.47
2018-11-01T20:48:05.112Z,74.52
2018-11-01T20:50:34.594Z,74.84
2018-11-01T20:53:03.335Z,74.91
2018-11-01T20:55:31.907Z,74.56
2018-11-01T20:58:00.574Z,74.73
2018-11-01T21:00:29.260Z,74.48
2018-11-01T21:02:57.933Z,74.15
2018-11-01T21:05:26.653Z,74.44
2018-11-01T21:07:55.224Z,74.43
2018-11-01T21:10:23.848Z,74.33
2018-11-01T21:12:52.772Z,74.65
2018-11-01T21:15:21.375Z,74.15
2018-11-01T21:17:50.028Z,74.52
2018-11-01T21:20:18.664Z,74.57
2018-11-01T21:22:47.379Z,74.81
2018-11-01T21:25:15.873Z,74.78
2018-11-01T21:27:44.578Z,75.28
2018-11-01T21:30:13.250Z,74.74
2018-11-01T21:32:41.918Z,75.03
2018-11-01T21:35:10.677Z,74.92
2018-11-01T21:37:39.145Z,74.63
2018-11-01T21:40:09.356Z,74.47
2018-11-01T21:42:38.140Z,74.51
2018-11-01T21:45:08.811Z,74.57
2018-11-01T21:47:37.507Z,73.91
2018-11-01T21:50:06.196Z,74.12
2018-11-01T21:52:34.901Z,73.94
2018-11-01T21:55:04.083Z,74.38
2018-11-01T21:57:33.091Z,74.02
2018-11-01T22:00:02.028Z,74.15
2018-11-01T22:02:30.779Z,73.89
2018-11-01T22:04:59.403Z,73.76
2018-11-01T22:07:27.990Z,73.71
2018-11-01T22:09:56.779Z,73.61
2018-11-01T22:12:25.361Z,74.31
2018-11-01T22:14:53.987Z,74.29
2018-11-01T22:17:22.771Z,74.24
2018-11-01T22:19:51.401Z,74.40
2018-11-01T22:22:20.014Z,74.45
2018-11-01T22:24:48.689Z,74.46
2018-11-01T22:27:17.296Z,74.48
2018-11-01T22:29:45.893Z,74.04
2018-11-01T22:32:14.522Z,73.91
2018-11-01T22:34:43.115Z,73.91
2018-11-01T22:37:11.761Z,73.22
2018-11-01T22:39:40.446Z,73.11
2018-11-01T22:42:09.184Z,73.53
2018-11-01T22:44:37.795Z,72.99
2018-11-01T22:47:06.713Z,72.78
2018-11-01T22:49:35.441Z,72.39
2018-11-01T22:52:04.039Z,72.35
2018-11-01T22:54:32.715Z,72.75
2018-11-01T22:57:01.645Z,72.47
2018-11-01T22:59:30.298Z,72.41
2018-11-01T23:01:58.929Z,72.24
2018-11-01T23:04:27.654Z,73.12
2018-11-01T23:06:56.282Z,73.67
2018-11-01T23:09:24.951Z,73.04
2018-11-01T23:11:53.637Z,73.71
2018-11-01T23:14:22.283Z,73.97
2018-11-01T23:16:50.848Z,74.04
2018-11-01T23:19:19.421Z,74.74
2018-11-01T23:21:48.396Z,74.43
2018-11-01T23:24:16.960Z,74.91
2018-11-01T23:26:45.530Z,74.91
2018-11-01T23:29:14.271Z,74.71
2018-11-01T23:31:43.025Z,74.04
2018-11-01T23:34:11.592Z,74.85
2018-11-01T23:36:45.405Z,74.49
2018-11-01T23:39:19.093Z,74.95
2018-11-01T23:41:53.023Z,75.06
2018-11-01T23:44:26.855Z,75.01
2018-11-01T23:47:00.627Z,75.36
2018-11-01T23:49:33.351Z,75.09
2018-11-01T23:52:07.271Z,75.25
2018-11-01T23:54:35.774Z,75.06
2018-11-01T23:57:04.391Z,75.40
2018-11-01T23:59:33.256Z,75.02
